Terminal Aerodrome Forecast
Issued by NWS Shreveport, LA

Home | Current Version | Previous Version | Text Only | Print | Product List | Glossary On
Versions: 1 2 3 4 5 6 7 8 9 10 11 12 13 14 15 16
000
FTUS44 KSHV 182000 AAA
TAFGGG
TAF AMD
KGGG 182056Z 1821/1918 14010KT 5SM -SHRA SCT015 BKN045 OVC110
      TEMPO 1821/1823 2SM +TSRA BKN015 OVC040CB
     FM190100 15004KT P6SM BKN100
     FM190300 12004KT P6SM BKN250
     FM190700 13004KT P6SM BKN007
      TEMPO 1909/1913 3SM BR OVC004
     FM191600 11006KT P6SM OVC010=

USA.gov is the U.S. government's official web portal to all federal, state and local government web resources and services.